Time;durP1;ratioP1;P1;durP2;ratioP2;P2;SDS_P1;SDS_P2;PMS_P1;PMS_P2;Temp;Humidity;BMP_temperature;BMP_pressure;BME280_temperature;BME280_humidity;BME280_pressure;Samples;Min_cycle;Max_cycle;Signal;HPM_P1;HPM_P2
2022/05/22 00:00:11;;;;;;;;;6.00;6.00;;;;;20.83;49.08;101104.56;5019478;28;45540;-50
2022/05/22 00:02:37;;;;;;;;;6.20;6.20;;;;;20.93;49.27;101137.28;5020300;28;45385;-51
2022/05/22 00:05:02;;;;;;;;;6.25;6.25;;;;;20.88;49.54;101126.09;5014889;28;45466;-49
2022/05/22 00:07:28;;;;;;;;;9.25;7.50;;;;;20.81;49.67;101123.50;5015097;28;45351;-51
2022/05/22 00:09:53;;;;;;;;;6.75;6.75;;;;;20.89;49.48;101124.97;5015385;28;45355;-54
2022/05/22 00:12:19;;;;;;;;;7.50;7.50;;;;;20.67;49.58;101097.22;5013984;28;45442;-47
2022/05/22 00:14:45;;;;;;;;;6.00;6.00;;;;;20.80;49.61;101115.41;5015002;28;45413;-48
2022/05/22 00:17:10;;;;;;;;;8.00;7.00;;;;;20.74;50.02;101108.16;5001534;28;45947;-52
2022/05/22 00:19:36;;;;;;;;;7.75;5.75;;;;;20.67;50.04;101125.13;5012687;28;45278;-52
2022/05/22 00:22:02;;;;;;;;;8.00;7.50;;;;;20.82;49.88;101135.50;5013978;28;45406;-49
2022/05/22 00:24:29;;;;;;;;;6.60;5.60;;;;;20.78;49.89;101112.06;5014981;28;45674;-49
2022/05/22 00:26:55;;;;;;;;;7.00;7.00;;;;;20.77;49.98;101115.97;5000661;28;45348;-50
2022/05/22 00:29:21;;;;;;;;;8.50;6.25;;;;;20.69;49.87;101083.84;5018117;28;45409;-48
2022/05/22 00:31:46;;;;;;;;;8.50;8.50;;;;;20.80;50.03;101115.41;5018689;28;45366;-47
2022/05/22 00:34:12;;;;;;;;;5.25;5.25;;;;;20.87;49.75;101120.78;5018214;28;45701;-51
2022/05/22 00:36:38;;;;;;;;;7.00;6.00;;;;;20.76;49.82;101117.06;5016838;28;45446;-48
2022/05/22 00:39:03;;;;;;;;;8.50;8.50;;;;;20.86;49.48;101117.13;5018348;28;45418;-49
2022/05/22 00:41:29;;;;;;;;;7.00;7.00;;;;;20.79;49.76;101113.72;5016809;28;45420;-48
2022/05/22 00:43:55;;;;;;;;;7.75;6.75;;;;;20.72;49.94;101109.22;5018333;28;45346;-53
2022/05/22 00:46:22;;;;;;;;;5.40;5.40;;;;;20.65;49.81;101110.63;5017955;28;45425;-48
2022/05/22 00:48:49;;;;;;;;;5.40;4.60;;;;;20.53;49.96;101092.16;5018600;28;45350;-50
2022/05/22 00:51:42;;;;;;;;;4.60;4.60;;;;;20.59;49.85;101093.84;5018137;28;45483;-48
2022/05/22 00:54:19;;;;;;;;;5.20;5.00;;;;;20.56;50.20;101094.38;5014551;28;46531;-50
2022/05/22 00:57:05;;;;;;;;;5.00;5.00;;;;;20.43;50.29;101083.72;5017966;28;45310;-49
2022/05/22 00:59:37;;;;;;;;;4.60;4.40;;;;;20.41;50.34;101078.44;5017679;28;45361;-48
2022/05/22 01:02:03;;;;;;;;;5.40;5.00;;;;;20.43;50.23;101079.00;5001432;28;45402;-50
2022/05/22 01:04:29;;;;;;;;;7.60;6.20;;;;;20.38;50.53;101081.75;5016976;28;45598;-52
2022/05/22 01:06:55;;;;;;;;;4.60;4.00;;;;;20.26;51.02;101072.75;5017682;28;45533;-52
2022/05/22 01:09:21;;;;;;;;;5.25;4.50;;;;;19.77;50.86;100996.66;5017177;28;45432;-50
2022/05/22 01:11:47;;;;;;;;;6.00;6.00;;;;;20.27;50.83;101052.16;5017912;28;45426;-49
2022/05/22 01:14:14;;;;;;;;;7.20;5.80;;;;;20.09;50.65;101018.06;5016533;28;46818;-47
2022/05/22 01:16:40;;;;;;;;;7.80;6.00;;;;;20.34;50.80;101055.53;5000193;28;45323;-48
2022/05/22 01:19:11;;;;;;;;;7.00;5.50;;;;;20.31;50.82;101048.56;5017770;28;45356;-49
2022/05/22 01:21:36;;;;;;;;;4.80;3.60;;;;;20.27;50.78;101052.16;5016885;28;45476;-49
2022/05/22 01:24:02;;;;;;;;;7.00;5.00;;;;;19.65;50.75;100949.53;5017996;28;46618;-52
2022/05/22 01:26:28;;;;;;;;;4.75;4.00;;;;;20.32;50.68;101052.16;5017606;28;45368;-50
2022/05/22 01:28:54;;;;;;;;;10.25;4.25;;;;;20.30;50.77;101054.41;5017516;28;45282;-50
2022/05/22 01:31:19;;;;;;;;;5.50;5.50;;;;;20.39;50.54;101051.94;5018170;28;45242;-55
2022/05/22 01:33:45;;;;;;;;;5.25;4.50;;;;;20.47;50.32;101051.41;5017306;28;45238;-54
2022/05/22 01:36:10;;;;;;;;;5.50;5.50;;;;;20.30;50.32;101012.59;5016167;28;45329;-53
2022/05/22 01:38:36;;;;;;;;;10.50;7.75;;;;;20.53;50.27;101038.31;5017423;28;45200;-47
2022/05/22 01:41:02;;;;;;;;;7.75;6.75;;;;;20.47;50.50;101033.84;5017827;28;45208;-47
2022/05/22 01:43:27;;;;;;;;;4.25;4.25;;;;;20.55;50.22;101050.88;5017453;28;45240;-51
2022/05/22 01:45:54;;;;;;;;;5.00;5.00;;;;;20.47;50.11;101039.41;5017383;28;45747;-48
2022/05/22 01:48:21;;;;;;;;;8.80;5.80;;;;;20.56;50.31;101046.16;5017453;28;45460;-47
2022/05/22 01:50:46;;;;;;;;;8.20;7.80;;;;;20.54;50.13;101051.19;5017415;28;45396;-48
2022/05/22 01:53:12;;;;;;;;;5.50;5.50;;;;;20.33;50.46;101008.44;5016810;28;46432;-53
2022/05/22 01:55:37;;;;;;;;;6.25;5.00;;;;;20.56;50.27;101040.59;5016149;28;45441;-49
2022/05/22 01:58:06;;;;;;;;;7.50;5.75;;;;;20.55;49.87;101047.28;5016784;28;45422;-50
2022/05/22 02:00:32;;;;;;;;;4.20;4.20;;;;;20.38;49.69;101006.50;5017394;28;45366;-53
2022/05/22 02:02:57;;;;;;;;;5.00;3.00;;;;;20.55;49.80;101038.91;4997241;28;46043;-53
2022/05/22 02:05:23;;;;;;;;;5.00;5.00;;;;;20.53;49.20;101039.19;5035858;28;45722;-50
2022/05/22 02:10:33;;;;;;;;;5.80;4.20;;;;;20.42;49.64;101038.28;5037498;28;45353;-48
2022/05/22 02:12:59;;;;;;;;;5.00;5.00;;;;;20.43;49.53;101039.13;5036845;28;46566;-48
2022/05/22 02:15:24;;;;;;;;;4.25;3.25;;;;;20.44;49.53;101024.91;5052230;28;45987;-49
2022/05/22 02:17:53;;;;;;;;;4.50;4.50;;;;;20.18;49.73;101004.47;5037172;28;45439;-51
2022/05/22 02:20:19;;;;;;;;;3.40;3.40;;;;;20.36;49.56;101035.75;5052836;28;45688;-47
2022/05/22 02:22:46;;;;;;;;;5.00;5.00;;;;;20.12;49.33;101005.53;5036848;28;46311;-48
2022/05/22 02:25:13;;;;;;;;;3.40;3.40;;;;;20.09;49.52;101006.91;5036732;28;45239;-47
2022/05/22 02:27:38;;;;;;;;;5.00;3.80;;;;;20.26;49.45;101031.81;5036918;28;45421;-48
2022/05/22 02:30:06;;;;;;;;;3.50;3.25;;;;;20.33;49.26;101036.28;5021963;28;45398;-48
2022/05/22 02:32:31;;;;;;;;;3.00;3.00;;;;;20.29;49.14;101019.28;5016381;28;47231;-45
2022/05/22 02:34:57;;;;;;;;;3.50;3.50;;;;;20.33;49.49;101030.72;5017053;28;45401;-51
2022/05/22 02:37:22;;;;;;;;;3.00;3.00;;;;;20.31;49.11;101026.25;5016539;28;45474;-52
2022/05/22 02:39:48;;;;;;;;;6.75;3.25;;;;;20.18;49.25;101016.44;5016959;28;45382;-50
2022/05/22 02:42:14;;;;;;;;;4.80;4.80;;;;;20.33;48.91;101039.09;5016294;28;46869;-49
2022/05/22 02:44:39;;;;;;;;;3.00;1.50;;;;;20.31;49.12;101034.63;5016790;28;45225;-49
2022/05/22 02:47:05;;;;;;;;;5.00;5.00;;;;;20.29;49.10;101050.75;5016451;28;45339;-47
2022/05/22 02:49:32;;;;;;;;;5.80;4.00;;;;;20.27;49.38;101052.97;5016589;28;45786;-52
2022/05/22 02:52:00;;;;;;;;;2.20;2.20;;;;;20.20;49.03;101055.19;5016564;28;45315;-49
2022/05/22 02:54:25;;;;;;;;;2.00;2.00;;;;;20.13;49.54;101055.41;5016483;28;45377;-51
2022/05/22 02:56:51;;;;;;;;;2.25;2.25;;;;;20.07;48.85;101031.44;5016777;28;45441;-48
2022/05/22 02:59:16;;;;;;;;;4.75;2.75;;;;;20.26;48.86;101056.03;5016720;28;45401;-52
2022/05/22 03:01:42;;;;;;;;;4.25;3.00;;;;;20.24;49.01;101064.69;5015862;28;45959;-49
2022/05/22 03:04:07;;;;;;;;;2.00;2.00;;;;;20.27;48.98;101058.56;5016183;28;45467;-49
2022/05/22 03:06:39;;;;;;;;;3.75;2.75;;;;;19.56;48.77;100954.75;5016124;28;45439;-48
2022/05/22 03:09:14;;;;;;;;;3.80;2.20;;;;;20.13;49.33;101054.59;5016230;28;45397;-52
2022/05/22 03:11:40;;;;;;;;;5.60;4.00;;;;;20.20;48.98;101052.38;5015915;28;45602;-54
2022/05/22 03:14:07;;;;;;;;;4.00;3.75;;;;;20.15;48.79;101046.78;5016081;28;45371;-52
2022/05/22 03:16:33;;;;;;;;;4.40;3.80;;;;;20.11;49.01;101051.22;5015737;28;45461;-53
2022/05/22 03:18:59;;;;;;;;;5.25;5.25;;;;;20.11;49.07;101046.47;5016505;28;45403;-53
2022/05/22 03:21:27;;;;;;;;;3.80;2.40;;;;;20.09;49.07;101037.56;5015899;28;47002;-49
2022/05/22 03:23:52;;;;;;;;;5.00;4.40;;;;;19.87;49.09;101002.31;5015392;28;45333;-50
2022/05/22 03:26:18;;;;;;;;;3.50;2.50;;;;;20.11;48.95;101021.41;5016607;28;45421;-49
2022/05/22 03:28:43;;;;;;;;;4.25;4.25;;;;;20.12;49.14;101013.91;5015608;28;45576;-47
2022/05/22 03:31:09;;;;;;;;;2.50;2.50;;;;;20.17;48.80;101014.75;5015987;28;46139;-46
2022/05/22 03:33:34;;;;;;;;;5.50;3.50;;;;;20.09;48.73;101000.50;5015462;28;45377;-49
2022/05/22 03:36:00;;;;;;;;;2.50;2.50;;;;;19.92;48.94;100980.03;5015830;28;45368;-48
2022/05/22 03:38:25;;;;;;;;;3.00;3.00;;;;;20.08;48.81;101001.59;5015740;28;45565;-49
2022/05/22 03:40:52;;;;;;;;;2.50;2.50;;;;;20.01;48.92;100999.91;5015416;28;45558;-47
2022/05/22 03:43:17;;;;;;;;;6.40;3.00;;;;;19.80;49.33;100971.03;5014513;28;45496;-49
2022/05/22 03:45:44;;;;;;;;;2.50;2.50;;;;;19.77;49.35;100972.44;5015622;28;45399;-46
2022/05/22 03:48:10;;;;;;;;;5.20;4.40;;;;;19.92;48.87;101007.06;5015911;28;45349;-49
2022/05/22 03:50:35;;;;;;;;;4.00;3.75;;;;;19.88;49.35;101001.19;5015274;28;46151;-48
2022/05/22 03:53:01;;;;;;;;;4.50;4.50;;;;;19.90;49.06;101012.91;5014364;28;45528;-49
2022/05/22 03:55:27;;;;;;;;;3.00;3.00;;;;;19.68;48.78;100965.69;5016045;28;45342;-47
2022/05/22 03:57:52;;;;;;;;;4.75;4.75;;;;;19.90;49.11;101003.69;4997919;28;45910;-49
2022/05/22 04:00:19;;;;;;;;;2.00;2.00;;;;;19.94;48.97;100999.28;5017806;28;45563;-48
2022/05/22 04:02:44;;;;;;;;;5.60;4.20;;;;;19.92;48.89;100998.72;5034093;28;45408;-48
2022/05/22 04:05:10;;;;;;;;;4.00;2.75;;;;;19.86;48.90;100991.44;5017776;28;45362;-47
2022/05/22 04:07:46;;;;;;;;;3.25;3.25;;;;;19.89;48.95;100974.16;5017977;28;45568;-51
2022/05/22 04:10:12;;;;;;;;;6.80;5.60;;;;;19.85;49.08;100978.63;5019047;28;45465;-51
2022/05/22 04:12:38;;;;;;;;;4.00;4.00;;;;;19.79;49.04;100972.16;5019003;28;45360;-50
2022/05/22 04:15:05;;;;;;;;;4.50;4.50;;;;;19.73;49.38;100965.72;5017323;28;45277;-47
2022/05/22 04:17:31;;;;;;;;;5.00;4.60;;;;;19.76;49.17;100967.13;5018889;28;45609;-47
2022/05/22 04:19:57;;;;;;;;;5.00;5.00;;;;;19.83;49.38;100964.09;5018674;28;46804;-49
2022/05/22 04:22:22;;;;;;;;;4.00;4.00;;;;;19.82;48.98;100968.84;5018254;28;45545;-49
2022/05/22 04:27:31;;;;;;;;;5.40;5.40;;;;;19.81;49.02;100971.91;5018622;28;45407;-47
2022/05/22 04:29:57;;;;;;;;;3.50;3.50;;;;;19.81;48.69;100978.31;5018399;28;45451;-51
2022/05/22 04:32:22;;;;;;;;;4.75;4.75;;;;;19.82;48.93;100963.28;5033833;28;45360;-52
2022/05/22 04:34:48;;;;;;;;;2.50;2.50;;;;;19.82;48.87;100974.41;5017625;28;45337;-52
2022/05/22 04:37:13;;;;;;;;;4.50;4.50;;;;;19.86;48.66;100981.09;5018219;28;45504;-50
2022/05/22 04:39:39;;;;;;;;;3.00;3.00;;;;;19.96;48.73;100976.75;5018169;28;45785;-48
2022/05/22 04:42:05;;;;;;;;;3.00;3.00;;;;;20.04;48.51;100979.03;5018285;28;45715;-48
2022/05/22 04:44:30;;;;;;;;;3.25;3.25;;;;;20.00;48.48;100973.16;5018171;28;45754;-48
2022/05/22 04:46:56;;;;;;;;;4.50;4.00;;;;;20.04;48.50;100979.88;5018697;28;45472;-48
2022/05/22 04:49:21;;;;;;;;;8.75;6.50;;;;;20.05;48.17;100980.69;5017803;28;45290;-50
2022/05/22 04:51:47;;;;;;;;;4.00;4.00;;;;;20.08;48.09;100985.75;5018370;28;45366;-47
2022/05/22 04:54:12;;;;;;;;;8.50;5.50;;;;;20.11;48.14;100998.28;5017930;28;45386;-49
2022/05/22 04:56:38;;;;;;;;;3.00;3.00;;;;;20.13;47.90;100987.72;5018539;28;45603;-50
2022/05/22 04:59:03;;;;;;;;;4.00;2.50;;;;;20.14;47.50;100992.16;5017841;28;46342;-49
2022/05/22 05:01:29;;;;;;;;;3.50;3.50;;;;;20.22;47.63;101001.97;5018356;28;45380;-49
2022/05/22 05:03:54;;;;;;;;;3.25;3.00;;;;;20.22;47.68;100991.66;5017265;28;45385;-49
2022/05/22 05:06:20;;;;;;;;;3.75;3.00;;;;;20.26;47.60;100998.38;5018547;28;45552;-48
2022/05/22 05:08:46;;;;;;;;;2.00;2.00;;;;;20.27;47.37;101002.81;5017962;28;45984;-47
2022/05/22 05:11:11;;;;;;;;;4.75;2.75;;;;;20.26;47.18;101001.16;5018006;28;45411;-50
2022/05/22 05:13:37;;;;;;;;;5.00;5.00;;;;;20.26;46.86;100990.00;5033469;28;45409;-52
2022/05/22 05:16:08;;;;;;;;;5.00;4.00;;;;;20.26;47.18;100989.16;5017048;28;45555;-55
2022/05/22 05:18:35;;;;;;;;;4.40;4.40;;;;;20.24;47.17;100991.38;5017750;28;45554;-47
2022/05/22 05:21:05;;;;;;;;;3.60;3.40;;;;;20.22;47.27;100991.66;5018229;28;45248;-48
2022/05/22 05:23:30;;;;;;;;;4.80;3.40;;;;;20.34;47.22;100996.16;5016607;28;45444;-50
2022/05/22 05:25:56;;;;;;;;;3.25;3.25;;;;;20.40;46.91;100995.06;5018371;28;45445;-52
2022/05/22 05:28:21;;;;;;;;;3.50;3.50;;;;;20.44;47.16;100985.06;5016366;28;45825;-50
2022/05/22 05:30:47;;;;;;;;;5.50;3.50;;;;;20.47;46.88;100992.03;5017596;28;45374;-51
2022/05/22 05:33:13;;;;;;;;;3.25;2.50;;;;;20.50;46.74;101005.44;5018012;28;45405;-48
2022/05/22 05:35:39;;;;;;;;;4.40;4.40;;;;;20.47;46.81;101003.16;5017916;28;45345;-49
2022/05/22 05:38:04;;;;;;;;;4.60;3.00;;;;;20.38;46.79;100981.41;5017512;28;46155;-54
2022/05/22 05:40:30;;;;;;;;;3.00;3.00;;;;;20.49;46.81;100998.19;5017346;28;45414;-53
2022/05/22 05:42:55;;;;;;;;;5.00;3.50;;;;;20.55;46.66;101014.63;5016847;28;45260;-48
2022/05/22 05:45:21;;;;;;;;;4.50;2.75;;;;;20.52;46.84;101011.56;5017809;28;45350;-50
2022/05/22 05:47:47;;;;;;;;;5.00;5.00;;;;;20.42;46.48;100981.69;5017467;28;45990;-52
2022/05/22 05:50:17;;;;;;;;;5.00;4.00;;;;;20.56;46.85;101012.72;5017277;28;45326;-51
2022/05/22 05:52:42;;;;;;;;;4.00;4.00;;;;;20.52;46.53;101004.06;5017137;28;45318;-50
2022/05/22 05:55:08;;;;;;;;;3.00;3.00;;;;;20.30;46.39;100951.28;5017710;28;45687;-46
2022/05/22 05:57:34;;;;;;;;;3.50;3.00;;;;;20.63;46.19;100990.97;5015954;28;45667;-51
2022/05/22 05:59:59;;;;;;;;;4.25;4.00;;;;;20.61;46.50;100979.28;5017064;28;45751;-52
2022/05/22 06:02:25;;;;;;;;;6.25;3.50;;;;;20.69;46.30;100981.53;5015937;28;45368;-49
2022/05/22 06:04:51;;;;;;;;;1.00;0.25;;;;;20.67;46.24;100971.75;5015668;28;45291;-49
2022/05/22 06:07:16;;;;;;;;;5.50;4.50;;;;;20.55;46.09;100944.13;5017126;28;45429;-51
2022/05/22 06:09:42;;;;;;;;;4.50;4.00;;;;;20.52;46.07;100933.50;5016688;28;45303;-48
2022/05/22 06:12:08;;;;;;;;;3.50;3.50;;;;;20.85;46.04;100984.38;5016070;28;45442;-50
2022/05/22 06:14:33;;;;;;;;;2.75;2.75;;;;;20.89;45.72;100973.50;5016834;28;45615;-49
2022/05/22 06:16:59;;;;;;;;;2.75;2.75;;;;;20.56;45.68;100903.97;5015240;28;45381;-48
2022/05/22 06:22:08;;;;;;;;;3.00;3.00;;;;;20.78;45.47;100908.47;5016022;28;45349;-48
2022/05/22 06:24:34;;;;;;;;;4.75;4.75;;;;;20.97;45.56;100933.91;5016930;28;45264;-49
2022/05/22 06:27:00;;;;;;;;;4.60;2.20;;;;;20.89;45.72;100935.28;5016311;28;46563;-49
2022/05/22 06:29:26;;;;;;;;;2.25;2.25;;;;;20.81;45.83;100936.63;5016650;28;45757;-50
2022/05/22 06:31:51;;;;;;;;;3.25;3.25;;;;;20.89;45.95;100926.91;5015499;28;45469;-51
2022/05/22 06:34:17;;;;;;;;;5.25;4.00;;;;;20.51;46.09;100884.44;5017064;28;45585;-50
2022/05/22 06:36:42;;;;;;;;;2.75;2.75;;;;;20.74;46.14;100910.97;5015022;28;45693;-47
2022/05/22 06:41:52;;;;;;;;;3.60;3.60;;;;;20.62;46.23;100882.50;4996559;28;45497;-48
2022/05/22 06:44:17;;;;;;;;;3.50;3.50;;;;;20.74;46.09;100890.63;4996996;28;45591;-49
2022/05/22 06:46:42;;;;;;;;;2.75;2.75;;;;;20.74;45.98;100896.22;4996508;28;45449;-47
2022/05/22 06:49:08;;;;;;;;;4.25;2.75;;;;;20.75;45.70;100898.69;4995162;28;45496;-48
2022/05/22 06:51:34;;;;;;;;;2.00;2.00;;;;;20.74;45.76;100896.22;4996839;28;45365;-50
2022/05/22 06:53:59;;;;;;;;;3.00;2.00;;;;;20.79;45.33;100894.25;4996414;28;45558;-54
2022/05/22 06:56:25;;;;;;;;;2.50;2.50;;;;;20.84;45.65;100893.44;4995018;28;45883;-49
2022/05/22 06:58:50;;;;;;;;;3.00;3.00;;;;;20.85;45.70;100892.31;4978723;28;45359;-52
2022/05/22 07:01:16;;;;;;;;;1.75;1.75;;;;;20.94;45.87;100900.97;4996574;28;45386;-52
2022/05/22 07:03:42;;;;;;;;;1.75;1.75;;;;;20.99;45.35;100896.22;4996925;28;45552;-49
2022/05/22 07:06:07;;;;;;;;;5.00;3.00;;;;;21.04;45.44;100912.16;5011241;28;45748;-49
2022/05/22 07:08:33;;;;;;;;;3.25;2.25;;;;;21.06;45.41;100912.69;4996716;28;45399;-49
2022/05/22 07:13:42;;;;;;;;;3.40;3.40;;;;;21.22;45.42;100898.72;4996658;28;45302;-49
2022/05/22 07:16:08;;;;;;;;;3.75;3.75;;;;;21.18;45.15;100880.91;4996333;28;46250;-48
2022/05/22 07:18:34;;;;;;;;;2.40;2.20;;;;;21.19;45.75;100894.53;5011770;28;45354;-49
2022/05/22 07:21:00;;;;;;;;;3.00;3.00;;;;;21.22;45.40;100915.47;4996514;28;45621;-49
2022/05/22 07:23:25;;;;;;;;;3.00;2.00;;;;;20.97;45.18;100864.16;4996945;28;45307;-47
2022/05/22 07:25:54;;;;;;;;;2.25;2.25;;;;;21.19;45.35;100880.59;4996037;28;45314;-50
2022/05/22 07:28:19;;;;;;;;;3.20;3.20;;;;;21.16;45.58;100858.84;4996241;28;45454;-47
2022/05/22 07:30:45;;;;;;;;;4.50;4.00;;;;;21.22;45.82;100863.31;5010879;28;45351;-49
2022/05/22 07:33:10;;;;;;;;;6.00;3.00;;;;;21.18;45.44;100858.56;5030502;28;45509;-50
2022/05/22 07:35:36;;;;;;;;;5.50;2.75;;;;;21.33;45.52;100860.47;5014189;28;45380;-51
2022/05/22 07:38:01;;;;;;;;;2.25;2.25;;;;;21.22;45.27;100849.34;5014586;28;45346;-50
2022/05/22 07:40:28;;;;;;;;;6.50;4.25;;;;;21.48;45.23;100896.75;5031102;28;45380;-49
2022/05/22 07:42:54;;;;;;;;;1.80;1.80;;;;;21.55;44.83;100896.44;5016461;28;45521;-50
2022/05/22 07:45:19;;;;;;;;;3.75;2.25;;;;;21.34;44.49;100860.19;5015615;28;45935;-50
2022/05/22 07:47:45;;;;;;;;;3.00;3.00;;;;;21.47;44.92;100900.66;5002930;28;45282;-52
2022/05/22 07:50:17;;;;;;;;;3.00;3.00;;;;;21.46;44.60;100878.63;5011291;28;45389;-48
2022/05/22 07:52:43;;;;;;;;;2.80;2.80;;;;;21.34;44.91;100835.09;5009587;28;45366;-49
2022/05/22 07:55:14;;;;;;;;;3.00;2.00;;;;;21.70;44.60;100864.03;5015636;28;46511;-52
2022/05/22 07:57:42;;;;;;;;;5.40;3.80;;;;;21.34;44.39;100796.00;5015506;28;45316;-53
2022/05/22 08:00:09;;;;;;;;;3.60;3.00;;;;;21.89;43.95;100867.06;5014340;28;45336;-47
2022/05/22 08:02:34;;;;;;;;;2.00;2.00;;;;;21.92;43.81;100858.09;5015733;28;45541;-51
2022/05/22 08:05:00;;;;;;;;;3.00;2.00;;;;;21.93;43.87;100852.22;5015204;28;45711;-49
2022/05/22 08:07:25;;;;;;;;;3.50;2.25;;;;;21.79;43.88;100815.69;5013821;28;45405;-50
2022/05/22 08:09:51;;;;;;;;;3.00;3.00;;;;;22.09;44.16;100843.75;5015111;28;45467;-50
2022/05/22 08:12:17;;;;;;;;;1.75;1.75;;;;;21.72;43.82;100769.66;4997777;28;45561;-49
2022/05/22 08:14:44;;;;;;;;;5.00;3.20;;;;;22.02;43.56;100813.34;5013468;28;46870;-48
2022/05/22 08:17:10;;;;;;;;;4.20;4.20;;;;;22.18;43.29;100811.31;5014861;28;45335;-48
2022/05/22 08:19:36;;;;;;;;;4.00;4.00;;;;;22.38;43.30;100817.88;5015226;28;45272;-47
2022/05/22 08:22:02;;;;;;;;;2.00;2.00;;;;;22.41;43.88;100816.47;5005777;28;46055;-48
2022/05/22 08:24:27;;;;;;;;;3.40;3.00;;;;;22.38;43.45;100789.06;5014708;28;45412;-47
2022/05/22 08:26:53;;;;;;;;;4.00;2.75;;;;;22.44;43.31;100779.53;5014982;28;45299;-49
2022/05/22 08:29:19;;;;;;;;;3.00;3.00;;;;;22.52;43.40;100787.31;5014069;28;45355;-50
2022/05/22 08:31:44;;;;;;;;;6.00;4.75;;;;;22.60;43.03;100803.50;5015513;28;45784;-53
2022/05/22 08:34:10;;;;;;;;;5.00;3.00;;;;;22.66;43.67;100806.22;5014950;28;46486;-51
2022/05/22 08:36:36;;;;;;;;;3.00;3.00;;;;;22.72;42.89;100802.25;5013563;28;45465;-48
2022/05/22 08:39:03;;;;;;;;;3.00;3.00;;;;;22.78;42.90;100803.88;5014611;28;45475;-46
2022/05/22 08:41:42;;;;;;;;;5.00;5.00;;;;;22.84;42.90;100808.31;5014016;28;45470;-49
2022/05/22 08:44:21;;;;;;;;;4.60;4.00;;;;;22.96;42.81;100816.31;4997384;28;45479;-50
2022/05/22 08:47:06;;;;;;;;;5.00;3.80;;;;;23.02;42.34;100812.31;5018196;28;45393;-51
2022/05/22 08:49:46;;;;;;;;;3.20;2.00;;;;;23.09;42.00;100811.16;5018425;28;45267;-52
2022/05/22 08:52:31;;;;;;;;;3.20;3.00;;;;;23.13;41.94;100807.47;5002533;28;45342;-49
2022/05/22 09:01:18;;;;;;;;;5.00;3.40;;;;;23.17;41.65;100799.31;5022534;28;45940;-50
2022/05/22 09:04:17;;;;;;;;;4.00;3.00;;;;;23.40;41.29;100814.50;5013333;28;45725;-47
2022/05/22 09:06:46;;;;;;;;;2.60;2.60;;;;;23.48;41.54;100803.78;5032950;28;45967;-51
2022/05/22 09:09:12;;;;;;;;;3.00;3.00;;;;;23.03;41.16;100715.22;5024264;28;45449;-52
2022/05/22 09:11:54;;;;;;;;;3.00;3.00;;;;;23.57;40.97;100790.75;5016833;28;45291;-53
2022/05/22 09:14:33;;;;;;;;;4.00;3.60;;;;;23.60;40.82;100797.75;5016502;28;45483;-45
2022/05/22 09:17:10;;;;;;;;;2.80;2.80;;;;;23.52;40.89;100768.41;4999650;28;46288;-47
2022/05/22 09:19:44;;;;;;;;;4.80;3.80;;;;;23.60;40.76;100783.72;5003608;28;45847;-46
2022/05/22 09:22:16;;;;;;;;;3.60;3.60;;;;;23.57;40.61;100776.75;5021100;28;45290;-45
2022/05/22 09:24:44;;;;;;;;;4.00;2.20;;;;;23.73;40.81;100785.81;5028349;28;45595;-51
2022/05/22 09:27:11;;;;;;;;;5.60;4.40;;;;;23.79;40.64;100775.34;5019715;28;45374;-51
2022/05/22 09:29:52;;;;;;;;;5.00;3.60;;;;;23.80;40.02;100774.25;5015463;28;45852;-47
2022/05/22 09:32:31;;;;;;;;;2.00;2.00;;;;;23.80;40.96;100757.44;5012715;28;45530;-45
2022/05/22 09:35:16;;;;;;;;;3.80;3.80;;;;;23.60;40.24;100728.56;5015563;28;45449;-48
2022/05/22 09:37:49;;;;;;;;;4.60;4.00;;;;;23.68;40.85;100757.84;5015813;28;45365;-48
2022/05/22 09:40:38;;;;;;;;;2.40;2.40;;;;;23.70;41.13;100752.81;5016179;28;45838;-50
2022/05/22 09:43:16;;;;;;;;;4.00;4.00;;;;;23.73;40.61;100742.97;5020130;28;45396;-49
2022/05/22 09:46:04;;;;;;;;;3.00;3.00;;;;;23.71;40.61;100745.22;5015740;28;45385;-48
2022/05/22 09:48:39;;;;;;;;;3.00;3.00;;;;;23.74;40.79;100736.22;5015469;28;45477;-46
2022/05/22 09:51:16;;;;;;;;;3.00;3.00;;;;;23.71;40.82;100732.06;5014467;28;45728;-47
2022/05/22 09:53:54;;;;;;;;;2.00;2.00;;;;;23.64;41.34;100720.38;5014184;28;45922;-48
2022/05/22 09:56:44;;;;;;;;;3.00;3.00;;;;;23.57;40.94;100714.31;5014880;28;45413;-48
2022/05/22 09:59:19;;;;;;;;;3.00;3.00;;;;;23.55;40.40;100720.22;5029358;28;46924;-50
2022/05/22 10:01:45;;;;;;;;;2.40;2.40;;;;;23.46;40.02;100713.59;5034410;28;45346;-47
2022/05/22 10:04:38;;;;;;;;;3.20;2.40;;;;;23.35;40.50;100680.16;5011123;28;45477;-47
2022/05/22 10:07:21;;;;;;;;;4.00;2.60;;;;;23.39;39.33;100677.59;5015047;28;45731;-49
2022/05/22 10:09:59;;;;;;;;;2.00;2.00;;;;;23.34;40.09;100664.50;5016484;28;47562;-50
2022/05/22 10:12:38;;;;;;;;;2.40;2.40;;;;;23.35;39.80;100665.31;5036441;28;45228;-47
2022/05/22 10:15:24;;;;;;;;;3.60;3.00;;;;;23.33;39.93;100674.03;5035923;28;45420;-52
2022/05/22 10:18:08;;;;;;;;;1.00;1.00;;;;;23.37;39.95;100674.25;5037003;28;45634;-50
2022/05/22 10:20:41;;;;;;;;;3.40;2.00;;;;;23.43;39.89;100687.06;5036409;28;45740;-51
2022/05/22 10:23:10;;;;;;;;;2.60;2.60;;;;;23.10;39.44;100637.31;5003271;28;45902;-51
2022/05/22 10:26:01;;;;;;;;;2.40;2.00;;;;;23.49;39.87;100657.00;5035956;28;45327;-49
2022/05/22 10:28:30;;;;;;;;;3.00;3.00;;;;;23.38;40.16;100648.75;5035450;28;45815;-55
2022/05/22 10:30:57;;;;;;;;;3.40;2.20;;;;;23.40;40.23;100651.25;5005518;28;46122;-52
2022/05/22 10:33:45;;;;;;;;;2.80;2.80;;;;;23.31;40.14;100642.69;4996527;28;45320;-49
2022/05/22 10:36:12;;;;;;;;;2.20;2.00;;;;;23.26;40.62;100635.16;4996449;28;45422;-48
2022/05/22 10:38:40;;;;;;;;;3.00;2.00;;;;;23.05;41.20;100589.81;4995878;28;45678;-48
2022/05/22 10:44:21;;;;;;;;;2.20;2.20;;;;;23.09;41.40;100602.06;4986570;28;45321;-48
2022/05/22 10:46:48;;;;;;;;;3.00;2.00;;;;;22.91;41.14;100577.69;4979520;28;45246;-51
2022/05/22 10:49:13;;;;;;;;;6.00;4.40;;;;;23.03;41.65;100592.09;4997228;28;45496;-50
2022/05/22 10:51:39;;;;;;;;;6.00;5.00;;;;;23.04;41.76;100585.34;4996190;28;45965;-47
2022/05/22 10:54:04;;;;;;;;;6.25;6.25;;;;;23.05;41.89;100577.81;4996943;28;45361;-50
2022/05/22 10:56:32;;;;;;;;;5.00;5.00;;;;;22.97;41.74;100568.94;4995135;28;45306;-48
2022/05/22 10:59:07;;;;;;;;;4.20;3.00;;;;;23.01;42.15;100575.59;4997140;28;45926;-49
2022/05/22 11:01:35;;;;;;;;;3.20;3.20;;;;;22.95;42.68;100571.19;4995000;28;45739;-46
2022/05/22 11:04:02;;;;;;;;;4.20;4.20;;;;;22.91;42.71;100577.69;4978489;28;46172;-48
2022/05/22 11:06:27;;;;;;;;;9.60;6.60;;;;;22.88;42.80;100582.75;4970052;28;45175;-46
2022/05/22 11:08:54;;;;;;;;;6.75;5.00;;;;;22.80;42.52;100582.59;5034926;28;45639;-47
2022/05/22 11:11:26;;;;;;;;;3.80;3.00;;;;;22.59;43.21;100557.66;5035887;28;45429;-47
2022/05/22 11:13:52;;;;;;;;;4.00;3.00;;;;;22.78;43.75;100591.28;5035285;28;45315;-48
2022/05/22 11:16:36;;;;;;;;;2.50;2.50;;;;;22.81;44.41;100603.84;5035899;28;45409;-49
2022/05/22 11:19:24;;;;;;;;;7.00;7.00;;;;;22.75;46.02;100598.28;5051003;28;45499;-50
2022/05/22 11:22:15;;;;;;;;;4.80;4.80;;;;;22.48;46.74;100563.34;5034204;28;45520;-50
2022/05/22 11:25:02;;;;;;;;;6.20;5.00;;;;;22.77;47.26;100612.00;5034473;28;45270;-49
2022/05/22 11:27:56;;;;;;;;;5.00;3.00;;;;;22.73;47.65;100602.53;5035522;28;45421;-49
2022/05/22 11:30:35;;;;;;;;;5.20;5.20;;;;;22.38;47.71;100549.50;5036028;28;45378;-51
2022/05/22 11:33:24;;;;;;;;;5.20;3.60;;;;;22.74;47.72;100595.81;5035162;28;46669;-53
2022/05/22 11:36:28;;;;;;;;;4.40;4.00;;;;;22.80;47.00;100591.81;5033941;28;45410;-51
2022/05/22 11:39:15;;;;;;;;;5.60;4.40;;;;;22.84;47.24;100604.06;5035183;28;45769;-49
2022/05/22 11:41:47;;;;;;;;;5.40;3.20;;;;;22.68;47.54;100575.44;5035711;28;45321;-47
2022/05/22 11:44:36;;;;;;;;;3.80;3.80;;;;;22.83;47.21;100593.19;5033816;28;45387;-51
2022/05/22 11:47:39;;;;;;;;;6.80;6.80;;;;;22.77;47.61;100594.38;5035132;28;45818;-49
2022/05/22 11:50:18;;;;;;;;;4.60;4.20;;;;;22.79;47.14;100592.13;5012602;28;45708;-52
2022/05/22 11:53:00;;;;;;;;;4.60;4.60;;;;;22.61;46.83;100544.22;5022873;28;45451;-49
2022/05/22 11:55:36;;;;;;;;;7.00;7.00;;;;;22.91;46.82;100586.09;5009833;28;47522;-51